sensor_id;sensor_type;location;lat;lon;timestamp;P1;durP1;ratioP1;P2;durP2;ratioP2
39612;SDS011;25303;48.896;13.342;2022-09-30T00:00:31;1.52;;;1.15;;
39612;SDS011;25303;48.896;13.342;2022-09-30T00:03:14;2.08;;;1.30;;
39612;SDS011;25303;48.896;13.342;2022-09-30T00:05:58;1.83;;;1.20;;
39612;SDS011;25303;48.896;13.342;2022-09-30T00:08:48;1.60;;;1.30;;
39612;SDS011;25303;48.896;13.342;2022-09-30T00:11:33;2.28;;;1.27;;
39612;SDS011;25303;48.896;13.342;2022-09-30T00:14:19;2.10;;;1.20;;
39612;SDS011;25303;48.896;13.342;2022-09-30T00:17:04;1.90;;;1.10;;
39612;SDS011;25303;48.896;13.342;2022-09-30T00:19:47;1.85;;;1.40;;
39612;SDS011;25303;48.896;13.342;2022-09-30T00:22:30;2.03;;;1.42;;
39612;SDS011;25303;48.896;13.342;2022-09-30T00:25:13;1.85;;;1.45;;
39612;SDS011;25303;48.896;13.342;2022-09-30T00:27:57;1.83;;;1.27;;
39612;SDS011;25303;48.896;13.342;2022-09-30T00:30:40;2.97;;;1.50;;
39612;SDS011;25303;48.896;13.342;2022-09-30T00:33:24;1.75;;;1.23;;
39612;SDS011;25303;48.896;13.342;2022-09-30T00:36:07;1.42;;;1.20;;
39612;SDS011;25303;48.896;13.342;2022-09-30T00:38:50;2.20;;;1.30;;
39612;SDS011;25303;48.896;13.342;2022-09-30T00:41:33;1.90;;;1.52;;
39612;SDS011;25303;48.896;13.342;2022-09-30T00:47:36;2.20;;;1.13;;
39612;SDS011;25303;48.896;13.342;2022-09-30T00:50:27;1.85;;;1.30;;
39612;SDS011;25303;48.896;13.342;2022-09-30T00:53:17;2.17;;;1.48;;
39612;SDS011;25303;48.896;13.342;2022-09-30T00:56:03;2.67;;;1.45;;
39612;SDS011;25303;48.896;13.342;2022-09-30T00:58:49;1.70;;;1.38;;
39612;SDS011;25303;48.896;13.342;2022-09-30T01:01:37;2.47;;;1.58;;
39612;SDS011;25303;48.896;13.342;2022-09-30T01:04:23;3.20;;;1.52;;
39612;SDS011;25303;48.896;13.342;2022-09-30T01:07:09;2.22;;;1.42;;
39612;SDS011;25303;48.896;13.342;2022-09-30T01:09:53;3.60;;;1.65;;
39612;SDS011;25303;48.896;13.342;2022-09-30T01:12:35;1.63;;;1.20;;
39612;SDS011;25303;48.896;13.342;2022-09-30T01:15:18;3.08;;;1.30;;
39612;SDS011;25303;48.896;13.342;2022-09-30T01:18:09;1.63;;;1.35;;
39612;SDS011;25303;48.896;13.342;2022-09-30T01:21:02;1.52;;;1.25;;
39612;SDS011;25303;48.896;13.342;2022-09-30T01:24:14;1.60;;;1.17;;
39612;SDS011;25303;48.896;13.342;2022-09-30T01:27:19;5.95;;;1.38;;
39612;SDS011;25303;48.896;13.342;2022-09-30T01:30:14;2.15;;;1.23;;
39612;SDS011;25303;48.896;13.342;2022-09-30T01:33:05;2.42;;;1.25;;
39612;SDS011;25303;48.896;13.342;2022-09-30T01:36:03;1.85;;;1.20;;
39612;SDS011;25303;48.896;13.342;2022-09-30T01:38:54;3.00;;;1.30;;
39612;SDS011;25303;48.896;13.342;2022-09-30T01:41:49;1.65;;;1.23;;
39612;SDS011;25303;48.896;13.342;2022-09-30T01:44:37;1.83;;;1.10;;
39612;SDS011;25303;48.896;13.342;2022-09-30T01:47:29;2.42;;;1.20;;
39612;SDS011;25303;48.896;13.342;2022-09-30T01:50:20;1.90;;;1.20;;
39612;SDS011;25303;48.896;13.342;2022-09-30T01:53:09;1.65;;;1.17;;
39612;SDS011;25303;48.896;13.342;2022-09-30T01:56:02;2.03;;;1.40;;
39612;SDS011;25303;48.896;13.342;2022-09-30T01:58:49;2.33;;;1.42;;
39612;SDS011;25303;48.896;13.342;2022-09-30T02:01:39;1.77;;;1.20;;
39612;SDS011;25303;48.896;13.342;2022-09-30T02:04:28;1.88;;;1.05;;
39612;SDS011;25303;48.896;13.342;2022-09-30T02:07:19;3.00;;;1.30;;
39612;SDS011;25303;48.896;13.342;2022-09-30T02:10:08;1.20;;;0.90;;
39612;SDS011;25303;48.896;13.342;2022-09-30T02:12:57;1.85;;;1.23;;
39612;SDS011;25303;48.896;13.342;2022-09-30T02:15:59;2.63;;;1.10;;
39612;SDS011;25303;48.896;13.342;2022-09-30T02:18:54;2.03;;;1.33;;
39612;SDS011;25303;48.896;13.342;2022-09-30T02:21:40;3.65;;;1.95;;
39612;SDS011;25303;48.896;13.342;2022-09-30T02:24:29;2.30;;;1.52;;
39612;SDS011;25303;48.896;13.342;2022-09-30T02:27:18;3.63;;;1.70;;
39612;SDS011;25303;48.896;13.342;2022-09-30T02:30:09;1.98;;;1.52;;
39612;SDS011;25303;48.896;13.342;2022-09-30T02:32:55;2.50;;;1.50;;
39612;SDS011;25303;48.896;13.342;2022-09-30T02:35:42;1.73;;;1.38;;
39612;SDS011;25303;48.896;13.342;2022-09-30T02:38:30;3.20;;;1.65;;
39612;SDS011;25303;48.896;13.342;2022-09-30T02:41:19;2.30;;;1.35;;
39612;SDS011;25303;48.896;13.342;2022-09-30T02:44:06;1.88;;;1.38;;
39612;SDS011;25303;48.896;13.342;2022-09-30T02:46:52;1.77;;;1.17;;
39612;SDS011;25303;48.896;13.342;2022-09-30T02:49:39;2.05;;;1.40;;
39612;SDS011;25303;48.896;13.342;2022-09-30T02:52:31;2.08;;;1.38;;
39612;SDS011;25303;48.896;13.342;2022-09-30T02:55:25;3.22;;;1.20;;
39612;SDS011;25303;48.896;13.342;2022-09-30T02:58:14;2.20;;;1.15;;
39612;SDS011;25303;48.896;13.342;2022-09-30T03:01:01;1.52;;;1.10;;
39612;SDS011;25303;48.896;13.342;2022-09-30T03:03:45;4.03;;;1.23;;
39612;SDS011;25303;48.896;13.342;2022-09-30T03:06:31;2.75;;;1.38;;
39612;SDS011;25303;48.896;13.342;2022-09-30T03:09:16;2.20;;;1.33;;
39612;SDS011;25303;48.896;13.342;2022-09-30T03:12:00;2.95;;;1.30;;
39612;SDS011;25303;48.896;13.342;2022-09-30T03:14:57;1.85;;;1.13;;
39612;SDS011;25303;48.896;13.342;2022-09-30T03:17:54;1.95;;;1.20;;
39612;SDS011;25303;48.896;13.342;2022-09-30T03:20:53;2.83;;;1.20;;
39612;SDS011;25303;48.896;13.342;2022-09-30T03:23:49;3.10;;;1.17;;
39612;SDS011;25303;48.896;13.342;2022-09-30T03:26:52;2.97;;;1.10;;
39612;SDS011;25303;48.896;13.342;2022-09-30T03:29:46;1.23;;;0.82;;
39612;SDS011;25303;48.896;13.342;2022-09-30T03:32:42;2.30;;;1.08;;
39612;SDS011;25303;48.896;13.342;2022-09-30T03:35:36;2.38;;;1.30;;
39612;SDS011;25303;48.896;13.342;2022-09-30T03:38:33;1.63;;;1.15;;
39612;SDS011;25303;48.896;13.342;2022-09-30T03:41:24;1.38;;;1.00;;
39612;SDS011;25303;48.896;13.342;2022-09-30T03:44:14;1.50;;;1.20;;
39612;SDS011;25303;48.896;13.342;2022-09-30T03:47:01;1.92;;;1.30;;
39612;SDS011;25303;48.896;13.342;2022-09-30T03:49:48;1.73;;;1.30;;
39612;SDS011;25303;48.896;13.342;2022-09-30T03:52:35;2.30;;;1.60;;
39612;SDS011;25303;48.896;13.342;2022-09-30T03:55:18;1.52;;;1.30;;
39612;SDS011;25303;48.896;13.342;2022-09-30T03:58:03;2.20;;;1.30;;
39612;SDS011;25303;48.896;13.342;2022-09-30T04:00:48;1.92;;;1.40;;
39612;SDS011;25303;48.896;13.342;2022-09-30T04:03:33;1.48;;;1.08;;
39612;SDS011;25303;48.896;13.342;2022-09-30T04:06:18;1.20;;;1.10;;
39612;SDS011;25303;48.896;13.342;2022-09-30T04:09:02;1.45;;;1.35;;
39612;SDS011;25303;48.896;13.342;2022-09-30T04:11:45;1.40;;;1.20;;
39612;SDS011;25303;48.896;13.342;2022-09-30T04:14:28;1.83;;;1.15;;
39612;SDS011;25303;48.896;13.342;2022-09-30T04:17:10;0.88;;;0.82;;
39612;SDS011;25303;48.896;13.342;2022-09-30T04:19:53;1.35;;;0.98;;
39612;SDS011;25303;48.896;13.342;2022-09-30T04:22:38;1.33;;;0.93;;
39612;SDS011;25303;48.896;13.342;2022-09-30T04:25:20;0.70;;;0.70;;
39612;SDS011;25303;48.896;13.342;2022-09-30T04:28:03;1.08;;;0.80;;
39612;SDS011;25303;48.896;13.342;2022-09-30T04:30:46;1.17;;;0.85;;
39612;SDS011;25303;48.896;13.342;2022-09-30T04:33:29;2.22;;;1.10;;
39612;SDS011;25303;48.896;13.342;2022-09-30T04:36:12;1.50;;;1.20;;
39612;SDS011;25303;48.896;13.342;2022-09-30T04:38:57;1.88;;;0.70;;
39612;SDS011;25303;48.896;13.342;2022-09-30T04:41:40;1.55;;;0.68;;
39612;SDS011;25303;48.896;13.342;2022-09-30T04:44:23;0.77;;;0.73;;
39612;SDS011;25303;48.896;13.342;2022-09-30T04:47:06;1.00;;;0.90;;
39612;SDS011;25303;48.896;13.342;2022-09-30T04:49:49;1.10;;;0.80;;
39612;SDS011;25303;48.896;13.342;2022-09-30T04:52:32;1.23;;;0.90;;
39612;SDS011;25303;48.896;13.342;2022-09-30T04:55:16;1.35;;;0.90;;
39612;SDS011;25303;48.896;13.342;2022-09-30T04:57:59;0.65;;;0.60;;
39612;SDS011;25303;48.896;13.342;2022-09-30T05:00:42;0.93;;;0.60;;
39612;SDS011;25303;48.896;13.342;2022-09-30T05:03:25;0.90;;;0.80;;
39612;SDS011;25303;48.896;13.342;2022-09-30T05:06:08;1.95;;;0.90;;
39612;SDS011;25303;48.896;13.342;2022-09-30T05:08:52;1.98;;;0.80;;
39612;SDS011;25303;48.896;13.342;2022-09-30T05:11:36;1.40;;;1.00;;
39612;SDS011;25303;48.896;13.342;2022-09-30T05:14:22;1.40;;;0.90;;
39612;SDS011;25303;48.896;13.342;2022-09-30T05:17:05;0.70;;;0.70;;
39612;SDS011;25303;48.896;13.342;2022-09-30T05:19:49;1.00;;;0.73;;
39612;SDS011;25303;48.896;13.342;2022-09-30T05:22:31;1.70;;;0.95;;
39612;SDS011;25303;48.896;13.342;2022-09-30T05:25:14;2.13;;;0.90;;
39612;SDS011;25303;48.896;13.342;2022-09-30T05:27:59;1.00;;;0.90;;
39612;SDS011;25303;48.896;13.342;2022-09-30T05:33:26;0.80;;;0.60;;
39612;SDS011;25303;48.896;13.342;2022-09-30T05:36:11;1.30;;;0.70;;
39612;SDS011;25303;48.896;13.342;2022-09-30T05:38:57;1.17;;;0.80;;
39612;SDS011;25303;48.896;13.342;2022-09-30T05:41:40;1.05;;;0.90;;
39612;SDS011;25303;48.896;13.342;2022-09-30T05:44:24;0.85;;;0.73;;
39612;SDS011;25303;48.896;13.342;2022-09-30T05:47:07;1.20;;;1.08;;
39612;SDS011;25303;48.896;13.342;2022-09-30T05:49:51;1.30;;;1.00;;
39612;SDS011;25303;48.896;13.342;2022-09-30T05:52:36;1.40;;;1.00;;
39612;SDS011;25303;48.896;13.342;2022-09-30T05:55:19;1.17;;;1.00;;
39612;SDS011;25303;48.896;13.342;2022-09-30T05:58:03;1.03;;;0.90;;
39612;SDS011;25303;48.896;13.342;2022-09-30T06:00:48;1.10;;;0.80;;
39612;SDS011;25303;48.896;13.342;2022-09-30T06:03:31;1.20;;;0.90;;
39612;SDS011;25303;48.896;13.342;2022-09-30T06:06:14;1.02;;;0.80;;
39612;SDS011;25303;48.896;13.342;2022-09-30T06:08:59;1.90;;;0.95;;
39612;SDS011;25303;48.896;13.342;2022-09-30T06:11:42;1.17;;;0.98;;
39612;SDS011;25303;48.896;13.342;2022-09-30T06:14:25;1.42;;;1.20;;
39612;SDS011;25303;48.896;13.342;2022-09-30T06:17:10;2.00;;;1.45;;
39612;SDS011;25303;48.896;13.342;2022-09-30T06:19:53;6.50;;;3.22;;
39612;SDS011;25303;48.896;13.342;2022-09-30T06:22:37;11.98;;;6.05;;
39612;SDS011;25303;48.896;13.342;2022-09-30T06:25:19;9.05;;;5.40;;
39612;SDS011;25303;48.896;13.342;2022-09-30T06:28:02;6.22;;;4.13;;
39612;SDS011;25303;48.896;13.342;2022-09-30T06:30:45;3.88;;;3.00;;
39612;SDS011;25303;48.896;13.342;2022-09-30T06:33:30;3.50;;;2.60;;
39612;SDS011;25303;48.896;13.342;2022-09-30T06:36:13;2.80;;;2.20;;
39612;SDS011;25303;48.896;13.342;2022-09-30T06:38:58;2.10;;;1.90;;
39612;SDS011;25303;48.896;13.342;2022-09-30T06:41:41;2.22;;;1.55;;
39612;SDS011;25303;48.896;13.342;2022-09-30T06:44:37;1.80;;;1.48;;
39612;SDS011;25303;48.896;13.342;2022-09-30T06:50:16;1.70;;;1.10;;
39612;SDS011;25303;48.896;13.342;2022-09-30T06:53:06;2.00;;;1.00;;
39612;SDS011;25303;48.896;13.342;2022-09-30T06:55:53;1.67;;;1.40;;
39612;SDS011;25303;48.896;13.342;2022-09-30T06:58:37;1.70;;;1.30;;
39612;SDS011;25303;48.896;13.342;2022-09-30T07:01:21;3.50;;;1.65;;
39612;SDS011;25303;48.896;13.342;2022-09-30T07:04:05;2.58;;;2.03;;
39612;SDS011;25303;48.896;13.342;2022-09-30T07:06:52;1.75;;;1.35;;
39612;SDS011;25303;48.896;13.342;2022-09-30T07:12:18;1.58;;;1.13;;
39612;SDS011;25303;48.896;13.342;2022-09-30T07:15:01;1.33;;;1.10;;
39612;SDS011;25303;48.896;13.342;2022-09-30T07:17:43;1.35;;;1.15;;
39612;SDS011;25303;48.896;13.342;2022-09-30T07:20:32;2.03;;;1.23;;
39612;SDS011;25303;48.896;13.342;2022-09-30T07:23:16;1.20;;;1.10;;
39612;SDS011;25303;48.896;13.342;2022-09-30T07:26:06;2.00;;;1.20;;
39612;SDS011;25303;48.896;13.342;2022-09-30T07:28:49;1.25;;;0.93;;
39612;SDS011;25303;48.896;13.342;2022-09-30T07:31:33;1.30;;;1.03;;
39612;SDS011;25303;48.896;13.342;2022-09-30T07:34:16;1.55;;;1.13;;
39612;SDS011;25303;48.896;13.342;2022-09-30T07:36:59;1.50;;;1.30;;
39612;SDS011;25303;48.896;13.342;2022-09-30T07:39:46;1.40;;;1.05;;
39612;SDS011;25303;48.896;13.342;2022-09-30T07:42:30;1.35;;;1.10;;
39612;SDS011;25303;48.896;13.342;2022-09-30T07:45:13;1.35;;;1.17;;
39612;SDS011;25303;48.896;13.342;2022-09-30T07:47:57;1.33;;;1.15;;
39612;SDS011;25303;48.896;13.342;2022-09-30T07:50:40;2.42;;;1.30;;
39612;SDS011;25303;48.896;13.342;2022-09-30T07:53:26;5.15;;;1.77;;
39612;SDS011;25303;48.896;13.342;2022-09-30T07:56:10;2.38;;;1.38;;
39612;SDS011;25303;48.896;13.342;2022-09-30T07:58:54;2.70;;;1.35;;
39612;SDS011;25303;48.896;13.342;2022-09-30T08:01:37;3.90;;;2.67;;
39612;SDS011;25303;48.896;13.342;2022-09-30T08:04:21;3.03;;;2.13;;
39612;SDS011;25303;48.896;13.342;2022-09-30T08:07:05;2.40;;;1.60;;
39612;SDS011;25303;48.896;13.342;2022-09-30T08:09:47;2.50;;;1.20;;
39612;SDS011;25303;48.896;13.342;2022-09-30T08:12:32;1.65;;;1.20;;
39612;SDS011;25303;48.896;13.342;2022-09-30T08:15:15;2.42;;;1.20;;
39612;SDS011;25303;48.896;13.342;2022-09-30T08:17:58;1.95;;;1.10;;
39612;SDS011;25303;48.896;13.342;2022-09-30T08:20:41;1.52;;;1.00;;
39612;SDS011;25303;48.896;13.342;2022-09-30T08:23:24;1.33;;;1.02;;
39612;SDS011;25303;48.896;13.342;2022-09-30T08:26:10;1.70;;;1.30;;
39612;SDS011;25303;48.896;13.342;2022-09-30T08:28:56;1.52;;;1.00;;
39612;SDS011;25303;48.896;13.342;2022-09-30T08:31:39;1.17;;;1.02;;
39612;SDS011;25303;48.896;13.342;2022-09-30T08:34:23;1.83;;;1.35;;
39612;SDS011;25303;48.896;13.342;2022-09-30T08:37:06;1.55;;;1.00;;
39612;SDS011;25303;48.896;13.342;2022-09-30T08:39:50;1.85;;;1.00;;
39612;SDS011;25303;48.896;13.342;2022-09-30T08:42:39;1.23;;;1.00;;
39612;SDS011;25303;48.896;13.342;2022-09-30T08:45:42;0.93;;;0.70;;
39612;SDS011;25303;48.896;13.342;2022-09-30T08:48:43;2.17;;;1.10;;
39612;SDS011;25303;48.896;13.342;2022-09-30T08:51:35;3.10;;;1.52;;
39612;SDS011;25303;48.896;13.342;2022-09-30T08:54:22;1.85;;;1.20;;
39612;SDS011;25303;48.896;13.342;2022-09-30T08:57:08;1.20;;;0.93;;
39612;SDS011;25303;48.896;13.342;2022-09-30T08:59:53;1.42;;;0.65;;
39612;SDS011;25303;48.896;13.342;2022-09-30T09:02:42;1.48;;;0.90;;
39612;SDS011;25303;48.896;13.342;2022-09-30T09:05:30;1.42;;;1.00;;
39612;SDS011;25303;48.896;13.342;2022-09-30T09:08:23;1.60;;;1.10;;
39612;SDS011;25303;48.896;13.342;2022-09-30T09:11:14;1.02;;;0.80;;
39612;SDS011;25303;48.896;13.342;2022-09-30T09:14:05;0.85;;;0.75;;
39612;SDS011;25303;48.896;13.342;2022-09-30T09:17:00;1.15;;;0.70;;
39612;SDS011;25303;48.896;13.342;2022-09-30T09:19:58;2.05;;;1.05;;
39612;SDS011;25303;48.896;13.342;2022-09-30T09:22:46;2.33;;;1.10;;
39612;SDS011;25303;48.896;13.342;2022-09-30T09:25:32;1.98;;;1.10;;
39612;SDS011;25303;48.896;13.342;2022-09-30T09:28:17;2.47;;;1.50;;
39612;SDS011;25303;48.896;13.342;2022-09-30T09:31:11;1.50;;;1.08;;
39612;SDS011;25303;48.896;13.342;2022-09-30T09:34:00;1.45;;;1.00;;
39612;SDS011;25303;48.896;13.342;2022-09-30T09:36:55;1.00;;;0.80;;
39612;SDS011;25303;48.896;13.342;2022-09-30T09:39:59;1.60;;;0.90;;
39612;SDS011;25303;48.896;13.342;2022-09-30T09:42:54;1.90;;;0.90;;
39612;SDS011;25303;48.896;13.342;2022-09-30T09:45:48;1.38;;;0.90;;
39612;SDS011;25303;48.896;13.342;2022-09-30T09:48:38;1.75;;;1.00;;
39612;SDS011;25303;48.896;13.342;2022-09-30T09:51:21;3.00;;;1.00;;
39612;SDS011;25303;48.896;13.342;2022-09-30T09:54:11;1.00;;;0.80;;
39612;SDS011;25303;48.896;13.342;2022-09-30T09:57:03;0.85;;;0.60;;
39612;SDS011;25303;48.896;13.342;2022-09-30T09:59:56;1.40;;;0.80;;
39612;SDS011;25303;48.896;13.342;2022-09-30T10:02:57;1.58;;;1.00;;
39612;SDS011;25303;48.896;13.342;2022-09-30T10:05:42;0.93;;;0.63;;
39612;SDS011;25303;48.896;13.342;2022-09-30T10:08:28;1.25;;;0.80;;
39612;SDS011;25303;48.896;13.342;2022-09-30T10:11:19;2.15;;;0.80;;
39612;SDS011;25303;48.896;13.342;2022-09-30T10:14:03;1.55;;;0.85;;
39612;SDS011;25303;48.896;13.342;2022-09-30T10:16:46;1.40;;;0.90;;
39612;SDS011;25303;48.896;13.342;2022-09-30T10:19:30;1.67;;;1.25;;
39612;SDS011;25303;48.896;13.342;2022-09-30T10:22:19;1.60;;;1.00;;
39612;SDS011;25303;48.896;13.342;2022-09-30T10:28:19;1.80;;;0.80;;
39612;SDS011;25303;48.896;13.342;2022-09-30T10:31:05;1.20;;;0.70;;
39612;SDS011;25303;48.896;13.342;2022-09-30T10:33:56;1.40;;;1.00;;
39612;SDS011;25303;48.896;13.342;2022-09-30T10:36:44;1.20;;;0.90;;
39612;SDS011;25303;48.896;13.342;2022-09-30T10:39:29;1.20;;;0.95;;
39612;SDS011;25303;48.896;13.342;2022-09-30T10:42:17;1.30;;;0.85;;
39612;SDS011;25303;48.896;13.342;2022-09-30T10:45:15;1.13;;;0.77;;
39612;SDS011;25303;48.896;13.342;2022-09-30T10:48:04;1.13;;;0.70;;
39612;SDS011;25303;48.896;13.342;2022-09-30T10:50:55;1.17;;;0.90;;
39612;SDS011;25303;48.896;13.342;2022-09-30T10:53:39;1.55;;;1.00;;
39612;SDS011;25303;48.896;13.342;2022-09-30T10:56:31;0.80;;;0.70;;
39612;SDS011;25303;48.896;13.342;2022-09-30T10:59:22;0.95;;;0.80;;
39612;SDS011;25303;48.896;13.342;2022-09-30T11:02:20;0.75;;;0.70;;
39612;SDS011;25303;48.896;13.342;2022-09-30T11:05:09;2.17;;;1.00;;
39612;SDS011;25303;48.896;13.342;2022-09-30T11:08:00;1.02;;;0.60;;
39612;SDS011;25303;48.896;13.342;2022-09-30T11:10:47;1.77;;;0.70;;
39612;SDS011;25303;48.896;13.342;2022-09-30T11:13:39;110.13;;;8.07;;
39612;SDS011;25303;48.896;13.342;2022-09-30T11:16:27;61.75;;;7.35;;
39612;SDS011;25303;48.896;13.342;2022-09-30T11:19:20;34.60;;;4.70;;
39612;SDS011;25303;48.896;13.342;2022-09-30T11:22:24;61.35;;;5.95;;
39612;SDS011;25303;48.896;13.342;2022-09-30T11:25:16;109.90;;;8.73;;
39612;SDS011;25303;48.896;13.342;2022-09-30T11:28:17;3.70;;;1.38;;
39612;SDS011;25303;48.896;13.342;2022-09-30T11:31:14;1.55;;;0.73;;
39612;SDS011;25303;48.896;13.342;2022-09-30T11:34:13;0.80;;;0.63;;
39612;SDS011;25303;48.896;13.342;2022-09-30T11:37:10;12.70;;;1.80;;
39612;SDS011;25303;48.896;13.342;2022-09-30T11:40:03;2.85;;;0.90;;
39612;SDS011;25303;48.896;13.342;2022-09-30T11:43:12;1.30;;;0.88;;
39612;SDS011;25303;48.896;13.342;2022-09-30T11:46:10;2.85;;;0.82;;
39612;SDS011;25303;48.896;13.342;2022-09-30T11:49:29;1.65;;;0.80;;
39612;SDS011;25303;48.896;13.342;2022-09-30T11:52:24;1.88;;;0.70;;
39612;SDS011;25303;48.896;13.342;2022-09-30T11:55:20;1.38;;;0.77;;
39612;SDS011;25303;48.896;13.342;2022-09-30T11:58:15;1.65;;;0.82;;
39612;SDS011;25303;48.896;13.342;2022-09-30T12:01:23;3.55;;;1.80;;
39612;SDS011;25303;48.896;13.342;2022-09-30T12:04:12;4.13;;;1.70;;
39612;SDS011;25303;48.896;13.342;2022-09-30T12:07:01;3.10;;;1.50;;
39612;SDS011;25303;48.896;13.342;2022-09-30T12:09:48;1.33;;;0.85;;
39612;SDS011;25303;48.896;13.342;2022-09-30T12:12:34;1.30;;;0.90;;
39612;SDS011;25303;48.896;13.342;2022-09-30T12:15:18;1.17;;;0.80;;
39612;SDS011;25303;48.896;13.342;2022-09-30T12:18:04;1.45;;;0.90;;
39612;SDS011;25303;48.896;13.342;2022-09-30T12:20:54;1.33;;;0.93;;
39612;SDS011;25303;48.896;13.342;2022-09-30T12:23:42;1.60;;;1.10;;
39612;SDS011;25303;48.896;13.342;2022-09-30T12:26:28;1.25;;;0.80;;
39612;SDS011;25303;48.896;13.342;2022-09-30T12:29:14;2.65;;;0.90;;
39612;SDS011;25303;48.896;13.342;2022-09-30T12:32:27;4.70;;;1.27;;
39612;SDS011;25303;48.896;13.342;2022-09-30T12:35:28;1.83;;;0.93;;
39612;SDS011;25303;48.896;13.342;2022-09-30T12:38:29;2.03;;;0.80;;
39612;SDS011;25303;48.896;13.342;2022-09-30T12:41:31;1.30;;;0.70;;
39612;SDS011;25303;48.896;13.342;2022-09-30T12:44:40;0.88;;;0.73;;
39612;SDS011;25303;48.896;13.342;2022-09-30T12:47:39;1.33;;;0.70;;
39612;SDS011;25303;48.896;13.342;2022-09-30T12:50:39;1.38;;;0.90;;
39612;SDS011;25303;48.896;13.342;2022-09-30T12:53:27;1.90;;;0.85;;
39612;SDS011;25303;48.896;13.342;2022-09-30T12:56:12;1.83;;;1.00;;
39612;SDS011;25303;48.896;13.342;2022-09-30T12:58:57;3.25;;;1.42;;
39612;SDS011;25303;48.896;13.342;2022-09-30T13:01:41;1.52;;;1.10;;
39612;SDS011;25303;48.896;13.342;2022-09-30T13:04:28;1.15;;;1.00;;
39612;SDS011;25303;48.896;13.342;2022-09-30T13:07:15;1.80;;;1.10;;
39612;SDS011;25303;48.896;13.342;2022-09-30T13:10:01;2.38;;;0.90;;
39612;SDS011;25303;48.896;13.342;2022-09-30T13:13:15;1.48;;;1.00;;
39612;SDS011;25303;48.896;13.342;2022-09-30T13:16:07;2.08;;;1.20;;
39612;SDS011;25303;48.896;13.342;2022-09-30T13:18:57;2.00;;;1.17;;
39612;SDS011;25303;48.896;13.342;2022-09-30T13:21:42;2.00;;;1.20;;
39612;SDS011;25303;48.896;13.342;2022-09-30T13:24:38;1.95;;;1.38;;
39612;SDS011;25303;48.896;13.342;2022-09-30T13:27:46;4.30;;;2.60;;
39612;SDS011;25303;48.896;13.342;2022-09-30T13:30:36;4.15;;;3.05;;
39612;SDS011;25303;48.896;13.342;2022-09-30T13:33:29;3.10;;;2.40;;
39612;SDS011;25303;48.896;13.342;2022-09-30T13:36:25;4.82;;;1.88;;
39612;SDS011;25303;48.896;13.342;2022-09-30T13:39:18;1.83;;;1.13;;
39612;SDS011;25303;48.896;13.342;2022-09-30T13:42:06;2.17;;;1.50;;
39612;SDS011;25303;48.896;13.342;2022-09-30T13:44:58;2.72;;;1.40;;
39612;SDS011;25303;48.896;13.342;2022-09-30T13:47:45;3.10;;;1.85;;
39612;SDS011;25303;48.896;13.342;2022-09-30T13:50:34;5.90;;;2.50;;
39612;SDS011;25303;48.896;13.342;2022-09-30T13:53:27;8.93;;;4.25;;
39612;SDS011;25303;48.896;13.342;2022-09-30T13:56:16;6.00;;;3.63;;
39612;SDS011;25303;48.896;13.342;2022-09-30T13:59:05;4.07;;;1.95;;
39612;SDS011;25303;48.896;13.342;2022-09-30T14:02:14;1.70;;;1.10;;
39612;SDS011;25303;48.896;13.342;2022-09-30T14:05:21;1.75;;;1.05;;
39612;SDS011;25303;48.896;13.342;2022-09-30T14:15:10;1.52;;;0.95;;
39612;SDS011;25303;48.896;13.342;2022-09-30T14:18:09;1.35;;;1.10;;
39612;SDS011;25303;48.896;13.342;2022-09-30T14:21:10;1.63;;;1.10;;
39612;SDS011;25303;48.896;13.342;2022-09-30T14:24:11;2.08;;;1.05;;
39612;SDS011;25303;48.896;13.342;2022-09-30T14:27:09;1.27;;;1.00;;
39612;SDS011;25303;48.896;13.342;2022-09-30T14:30:12;1.10;;;0.90;;
39612;SDS011;25303;48.896;13.342;2022-09-30T14:32:58;1.25;;;0.80;;
39612;SDS011;25303;48.896;13.342;2022-09-30T14:35:43;1.00;;;0.80;;
39612;SDS011;25303;48.896;13.342;2022-09-30T14:38:27;4.57;;;2.28;;
39612;SDS011;25303;48.896;13.342;2022-09-30T14:41:17;2.20;;;1.33;;
39612;SDS011;25303;48.896;13.342;2022-09-30T14:44:03;3.20;;;1.27;;
39612;SDS011;25303;48.896;13.342;2022-09-30T14:46:48;1.58;;;1.13;;
39612;SDS011;25303;48.896;13.342;2022-09-30T14:52:33;1.27;;;1.00;;
39612;SDS011;25303;48.896;13.342;2022-09-30T14:55:26;1.77;;;1.27;;
39612;SDS011;25303;48.896;13.342;2022-09-30T14:58:18;1.60;;;1.08;;
39612;SDS011;25303;48.896;13.342;2022-09-30T15:01:09;1.30;;;1.00;;
39612;SDS011;25303;48.896;13.342;2022-09-30T15:03:59;1.30;;;0.98;;
39612;SDS011;25303;48.896;13.342;2022-09-30T15:06:45;1.38;;;0.80;;
39612;SDS011;25303;48.896;13.342;2022-09-30T15:09:32;1.52;;;0.80;;
39612;SDS011;25303;48.896;13.342;2022-09-30T15:12:18;1.00;;;0.82;;
39612;SDS011;25303;48.896;13.342;2022-09-30T15:21:25;1.83;;;1.10;;
39612;SDS011;25303;48.896;13.342;2022-09-30T15:24:11;1.20;;;0.82;;
39612;SDS011;25303;48.896;13.342;2022-09-30T15:26:54;1.02;;;0.80;;
39612;SDS011;25303;48.896;13.342;2022-09-30T15:29:51;1.02;;;0.90;;
39612;SDS011;25303;48.896;13.342;2022-09-30T15:32:36;1.30;;;0.70;;
39612;SDS011;25303;48.896;13.342;2022-09-30T15:35:24;1.88;;;0.93;;
39612;SDS011;25303;48.896;13.342;2022-09-30T15:38:08;1.80;;;1.10;;
39612;SDS011;25303;48.896;13.342;2022-09-30T15:40:58;1.73;;;0.75;;
39612;SDS011;25303;48.896;13.342;2022-09-30T15:43:44;1.73;;;0.90;;
39612;SDS011;25303;48.896;13.342;2022-09-30T15:46:31;2.97;;;0.77;;
39612;SDS011;25303;48.896;13.342;2022-09-30T15:49:30;1.05;;;0.80;;
39612;SDS011;25303;48.896;13.342;2022-09-30T15:52:20;1.38;;;1.00;;
39612;SDS011;25303;48.896;13.342;2022-09-30T15:58:29;1.60;;;0.90;;
39612;SDS011;25303;48.896;13.342;2022-09-30T16:01:14;1.20;;;0.95;;
39612;SDS011;25303;48.896;13.342;2022-09-30T16:04:01;1.67;;;1.10;;
39612;SDS011;25303;48.896;13.342;2022-09-30T16:06:51;1.55;;;1.00;;
39612;SDS011;25303;48.896;13.342;2022-09-30T16:09:36;1.60;;;1.02;;
39612;SDS011;25303;48.896;13.342;2022-09-30T16:12:21;1.33;;;1.10;;
39612;SDS011;25303;48.896;13.342;2022-09-30T16:15:07;2.33;;;0.95;;
39612;SDS011;25303;48.896;13.342;2022-09-30T16:17:55;2.85;;;1.13;;
39612;SDS011;25303;48.896;13.342;2022-09-30T16:20:39;2.65;;;1.00;;
39612;SDS011;25303;48.896;13.342;2022-09-30T16:23:41;1.55;;;0.70;;
39612;SDS011;25303;48.896;13.342;2022-09-30T16:26:27;1.20;;;0.88;;
39612;SDS011;25303;48.896;13.342;2022-09-30T16:29:11;3.03;;;1.67;;
39612;SDS011;25303;48.896;13.342;2022-09-30T16:31:58;2.20;;;1.08;;
39612;SDS011;25303;48.896;13.342;2022-09-30T16:34:41;1.25;;;0.90;;
39612;SDS011;25303;48.896;13.342;2022-09-30T16:37:24;2.75;;;0.90;;
39612;SDS011;25303;48.896;13.342;2022-09-30T16:40:14;1.00;;;0.90;;
39612;SDS011;25303;48.896;13.342;2022-09-30T16:43:00;1.15;;;0.85;;
39612;SDS011;25303;48.896;13.342;2022-09-30T16:45:48;1.02;;;0.70;;
39612;SDS011;25303;48.896;13.342;2022-09-30T16:48:31;1.38;;;0.80;;
39612;SDS011;25303;48.896;13.342;2022-09-30T16:51:15;0.85;;;0.80;;
39612;SDS011;25303;48.896;13.342;2022-09-30T16:53:58;2.70;;;1.00;;
39612;SDS011;25303;48.896;13.342;2022-09-30T16:56:42;2.10;;;0.90;;
39612;SDS011;25303;48.896;13.342;2022-09-30T16:59:26;1.73;;;0.90;;
39612;SDS011;25303;48.896;13.342;2022-09-30T17:02:13;4.00;;;0.90;;
39612;SDS011;25303;48.896;13.342;2022-09-30T17:04:56;2.65;;;1.10;;
39612;SDS011;25303;48.896;13.342;2022-09-30T17:07:39;1.55;;;1.10;;
39612;SDS011;25303;48.896;13.342;2022-09-30T17:10:25;1.92;;;1.10;;
39612;SDS011;25303;48.896;13.342;2022-09-30T17:13:10;4.30;;;1.73;;